sensor_id;sensor_type;location;lat;lon;timestamp;P1;durP1;ratioP1;P2;durP2;ratioP2
34828;SDS011;21042;47.620;12.188;2024-03-02T00:00:27;36.05;;;17.63;;
34828;SDS011;21042;47.620;12.188;2024-03-02T00:02:54;39.58;;;17.77;;
34828;SDS011;21042;47.620;12.188;2024-03-02T00:05:21;40.38;;;17.15;;
34828;SDS011;21042;47.620;12.188;2024-03-02T00:07:55;34.92;;;16.52;;
34828;SDS011;21042;47.620;12.188;2024-03-02T00:10:41;45.83;;;17.98;;
34828;SDS011;21042;47.620;12.188;2024-03-02T00:13:08;45.63;;;18.95;;
34828;SDS011;21042;47.620;12.188;2024-03-02T00:15:49;44.92;;;18.70;;
34828;SDS011;21042;47.620;12.188;2024-03-02T00:18:39;36.72;;;16.83;;
34828;SDS011;21042;47.620;12.188;2024-03-02T00:21:06;40.40;;;16.77;;
34828;SDS011;21042;47.620;12.188;2024-03-02T00:23:36;30.75;;;14.40;;
34828;SDS011;21042;47.620;12.188;2024-03-02T00:26:04;30.70;;;15.57;;
34828;SDS011;21042;47.620;12.188;2024-03-02T00:33:32;37.78;;;16.15;;
34828;SDS011;21042;47.620;12.188;2024-03-02T00:36:26;39.05;;;16.35;;
34828;SDS011;21042;47.620;12.188;2024-03-02T00:38:54;38.22;;;16.38;;
34828;SDS011;21042;47.620;12.188;2024-03-02T00:46:27;39.95;;;14.60;;
34828;SDS011;21042;47.620;12.188;2024-03-02T00:48:57;25.30;;;12.68;;
34828;SDS011;21042;47.620;12.188;2024-03-02T00:51:26;29.02;;;14.13;;
34828;SDS011;21042;47.620;12.188;2024-03-02T00:53:54;25.15;;;12.63;;
34828;SDS011;21042;47.620;12.188;2024-03-02T00:56:23;27.52;;;13.07;;
34828;SDS011;21042;47.620;12.188;2024-03-02T00:58:51;28.75;;;12.65;;
34828;SDS011;21042;47.620;12.188;2024-03-02T01:01:18;31.83;;;12.90;;
34828;SDS011;21042;47.620;12.188;2024-03-02T01:03:49;28.60;;;12.60;;
34828;SDS011;21042;47.620;12.188;2024-03-02T01:06:16;29.98;;;12.40;;
34828;SDS011;21042;47.620;12.188;2024-03-02T01:08:43;28.27;;;12.63;;
34828;SDS011;21042;47.620;12.188;2024-03-02T01:11:10;27.58;;;12.82;;
34828;SDS011;21042;47.620;12.188;2024-03-02T01:13:37;30.02;;;13.50;;
34828;SDS011;21042;47.620;12.188;2024-03-02T01:16:04;37.38;;;14.20;;
34828;SDS011;21042;47.620;12.188;2024-03-02T01:18:31;35.28;;;14.73;;
34828;SDS011;21042;47.620;12.188;2024-03-02T01:20:58;29.80;;;13.98;;
34828;SDS011;21042;47.620;12.188;2024-03-02T01:23:25;30.80;;;13.45;;
34828;SDS011;21042;47.620;12.188;2024-03-02T01:25:52;39.45;;;18.20;;
34828;SDS011;21042;47.620;12.188;2024-03-02T01:28:19;37.55;;;17.58;;
34828;SDS011;21042;47.620;12.188;2024-03-02T01:30:47;40.70;;;18.65;;
34828;SDS011;21042;47.620;12.188;2024-03-02T01:33:15;40.20;;;18.17;;
34828;SDS011;21042;47.620;12.188;2024-03-02T01:35:43;40.80;;;18.70;;
34828;SDS011;21042;47.620;12.188;2024-03-02T01:38:09;42.92;;;19.35;;
34828;SDS011;21042;47.620;12.188;2024-03-02T01:40:37;44.38;;;20.15;;
34828;SDS011;21042;47.620;12.188;2024-03-02T01:43:04;46.58;;;19.98;;
34828;SDS011;21042;47.620;12.188;2024-03-02T01:45:32;46.45;;;20.20;;
34828;SDS011;21042;47.620;12.188;2024-03-02T01:47:59;41.80;;;19.98;;
34828;SDS011;21042;47.620;12.188;2024-03-02T01:50:26;47.15;;;20.13;;
34828;SDS011;21042;47.620;12.188;2024-03-02T01:52:55;39.80;;;19.33;;
34828;SDS011;21042;47.620;12.188;2024-03-02T01:55:22;45.30;;;19.95;;
34828;SDS011;21042;47.620;12.188;2024-03-02T01:57:49;46.38;;;19.92;;
34828;SDS011;21042;47.620;12.188;2024-03-02T02:00:20;39.85;;;19.10;;
34828;SDS011;21042;47.620;12.188;2024-03-02T02:02:48;41.88;;;18.45;;
34828;SDS011;21042;47.620;12.188;2024-03-02T02:05:16;36.90;;;17.88;;
34828;SDS011;21042;47.620;12.188;2024-03-02T02:07:43;45.40;;;19.23;;
34828;SDS011;21042;47.620;12.188;2024-03-02T02:10:10;34.67;;;15.52;;
34828;SDS011;21042;47.620;12.188;2024-03-02T02:12:37;35.25;;;15.63;;
34828;SDS011;21042;47.620;12.188;2024-03-02T02:15:21;32.42;;;14.65;;
34828;SDS011;21042;47.620;12.188;2024-03-02T02:17:52;33.97;;;15.00;;
34828;SDS011;21042;47.620;12.188;2024-03-02T02:20:19;32.90;;;14.68;;
34828;SDS011;21042;47.620;12.188;2024-03-02T02:25:40;30.05;;;14.45;;
34828;SDS011;21042;47.620;12.188;2024-03-02T02:28:06;34.03;;;14.63;;
34828;SDS011;21042;47.620;12.188;2024-03-02T02:30:33;31.80;;;14.23;;
34828;SDS011;21042;47.620;12.188;2024-03-02T02:33:01;37.47;;;15.27;;
34828;SDS011;21042;47.620;12.188;2024-03-02T02:35:28;26.15;;;12.45;;
34828;SDS011;21042;47.620;12.188;2024-03-02T02:37:56;35.55;;;13.85;;
34828;SDS011;21042;47.620;12.188;2024-03-02T02:40:24;29.00;;;12.85;;
34828;SDS011;21042;47.620;12.188;2024-03-02T02:42:51;30.27;;;12.38;;
34828;SDS011;21042;47.620;12.188;2024-03-02T02:45:19;25.40;;;11.57;;
34828;SDS011;21042;47.620;12.188;2024-03-02T02:50:13;33.55;;;13.38;;
34828;SDS011;21042;47.620;12.188;2024-03-02T02:52:40;35.08;;;13.88;;
34828;SDS011;21042;47.620;12.188;2024-03-02T02:55:12;31.75;;;15.50;;
34828;SDS011;21042;47.620;12.188;2024-03-02T02:57:40;31.42;;;13.85;;
34828;SDS011;21042;47.620;12.188;2024-03-02T03:02:42;28.52;;;13.20;;
34828;SDS011;21042;47.620;12.188;2024-03-02T03:09:09;30.50;;;13.82;;
34828;SDS011;21042;47.620;12.188;2024-03-02T03:11:37;28.52;;;13.32;;
34828;SDS011;21042;47.620;12.188;2024-03-02T03:14:04;31.67;;;15.30;;
34828;SDS011;21042;47.620;12.188;2024-03-02T03:16:31;33.35;;;13.88;;
34828;SDS011;21042;47.620;12.188;2024-03-02T03:18:57;24.38;;;12.23;;
34828;SDS011;21042;47.620;12.188;2024-03-02T03:21:24;36.85;;;15.60;;
34828;SDS011;21042;47.620;12.188;2024-03-02T03:23:51;53.63;;;20.80;;
34828;SDS011;21042;47.620;12.188;2024-03-02T03:26:18;49.08;;;19.67;;
34828;SDS011;21042;47.620;12.188;2024-03-02T03:28:45;40.35;;;18.35;;
34828;SDS011;21042;47.620;12.188;2024-03-02T03:31:12;38.67;;;18.02;;
34828;SDS011;21042;47.620;12.188;2024-03-02T03:33:39;43.10;;;17.80;;
34828;SDS011;21042;47.620;12.188;2024-03-02T03:36:05;45.83;;;18.65;;
34828;SDS011;21042;47.620;12.188;2024-03-02T03:40:59;37.20;;;17.42;;
34828;SDS011;21042;47.620;12.188;2024-03-02T03:43:26;39.22;;;17.60;;
34828;SDS011;21042;47.620;12.188;2024-03-02T03:45:53;37.33;;;17.95;;
34828;SDS011;21042;47.620;12.188;2024-03-02T03:48:20;49.63;;;21.50;;
34828;SDS011;21042;47.620;12.188;2024-03-02T03:50:47;47.65;;;21.60;;
34828;SDS011;21042;47.620;12.188;2024-03-02T03:53:13;50.25;;;20.95;;
34828;SDS011;21042;47.620;12.188;2024-03-02T03:55:40;49.00;;;20.35;;
34828;SDS011;21042;47.620;12.188;2024-03-02T03:58:08;44.45;;;18.15;;
34828;SDS011;21042;47.620;12.188;2024-03-02T04:00:34;40.05;;;16.45;;
34828;SDS011;21042;47.620;12.188;2024-03-02T04:03:02;37.35;;;16.45;;
34828;SDS011;21042;47.620;12.188;2024-03-02T04:05:28;41.25;;;17.83;;
34828;SDS011;21042;47.620;12.188;2024-03-02T04:07:55;31.55;;;16.90;;
34828;SDS011;21042;47.620;12.188;2024-03-02T04:10:22;39.30;;;16.50;;
34828;SDS011;21042;47.620;12.188;2024-03-02T04:12:50;38.83;;;17.20;;
34828;SDS011;21042;47.620;12.188;2024-03-02T04:15:17;39.72;;;19.17;;
34828;SDS011;21042;47.620;12.188;2024-03-02T04:17:45;38.80;;;18.60;;
34828;SDS011;21042;47.620;12.188;2024-03-02T04:20:12;45.08;;;20.35;;
34828;SDS011;21042;47.620;12.188;2024-03-02T04:22:39;34.90;;;17.65;;
34828;SDS011;21042;47.620;12.188;2024-03-02T04:25:06;41.15;;;18.33;;
34828;SDS011;21042;47.620;12.188;2024-03-02T04:27:33;40.20;;;19.25;;
34828;SDS011;21042;47.620;12.188;2024-03-02T04:30:00;43.75;;;18.33;;
34828;SDS011;21042;47.620;12.188;2024-03-02T04:32:27;47.90;;;18.27;;
34828;SDS011;21042;47.620;12.188;2024-03-02T04:34:54;34.05;;;15.85;;
34828;SDS011;21042;47.620;12.188;2024-03-02T04:37:21;37.92;;;17.13;;
34828;SDS011;21042;47.620;12.188;2024-03-02T04:39:47;38.85;;;17.70;;
34828;SDS011;21042;47.620;12.188;2024-03-02T04:42:14;43.05;;;18.20;;
34828;SDS011;21042;47.620;12.188;2024-03-02T04:44:41;41.42;;;18.98;;
34828;SDS011;21042;47.620;12.188;2024-03-02T04:47:08;41.83;;;19.75;;
34828;SDS011;21042;47.620;12.188;2024-03-02T04:49:35;46.22;;;20.77;;
34828;SDS011;21042;47.620;12.188;2024-03-02T04:52:02;44.63;;;19.40;;
34828;SDS011;21042;47.620;12.188;2024-03-02T04:54:29;45.35;;;19.08;;
34828;SDS011;21042;47.620;12.188;2024-03-02T04:56:56;44.50;;;18.73;;
34828;SDS011;21042;47.620;12.188;2024-03-02T04:59:23;40.30;;;17.92;;
34828;SDS011;21042;47.620;12.188;2024-03-02T05:01:50;49.83;;;17.23;;
34828;SDS011;21042;47.620;12.188;2024-03-02T05:04:16;23.23;;;10.88;;
34828;SDS011;21042;47.620;12.188;2024-03-02T05:09:17;33.80;;;15.30;;
34828;SDS011;21042;47.620;12.188;2024-03-02T05:11:44;29.98;;;14.25;;
34828;SDS011;21042;47.620;12.188;2024-03-02T05:14:10;36.88;;;16.15;;
34828;SDS011;21042;47.620;12.188;2024-03-02T05:16:37;40.63;;;16.75;;
34828;SDS011;21042;47.620;12.188;2024-03-02T05:19:07;43.97;;;19.25;;
34828;SDS011;21042;47.620;12.188;2024-03-02T05:21:34;49.00;;;20.55;;
34828;SDS011;21042;47.620;12.188;2024-03-02T05:24:01;46.33;;;20.95;;
34828;SDS011;21042;47.620;12.188;2024-03-02T05:26:28;45.63;;;20.30;;
34828;SDS011;21042;47.620;12.188;2024-03-02T05:28:55;45.83;;;18.50;;
34828;SDS011;21042;47.620;12.188;2024-03-02T05:31:22;44.63;;;18.17;;
34828;SDS011;21042;47.620;12.188;2024-03-02T05:33:48;45.30;;;19.33;;
34828;SDS011;21042;47.620;12.188;2024-03-02T05:36:20;44.72;;;18.20;;
34828;SDS011;21042;47.620;12.188;2024-03-02T05:38:46;48.17;;;20.35;;
34828;SDS011;21042;47.620;12.188;2024-03-02T05:41:13;45.58;;;20.55;;
34828;SDS011;21042;47.620;12.188;2024-03-02T05:43:40;49.85;;;21.95;;
34828;SDS011;21042;47.620;12.188;2024-03-02T05:46:07;43.30;;;19.70;;
34828;SDS011;21042;47.620;12.188;2024-03-02T05:48:33;46.22;;;20.88;;
34828;SDS011;21042;47.620;12.188;2024-03-02T05:51:00;46.90;;;19.45;;
34828;SDS011;21042;47.620;12.188;2024-03-02T05:55:54;43.35;;;18.33;;
34828;SDS011;21042;47.620;12.188;2024-03-02T05:58:22;43.40;;;18.40;;
34828;SDS011;21042;47.620;12.188;2024-03-02T06:01:03;48.70;;;20.20;;
34828;SDS011;21042;47.620;12.188;2024-03-02T06:03:32;48.97;;;22.25;;
34828;SDS011;21042;47.620;12.188;2024-03-02T06:05:58;45.45;;;20.00;;
34828;SDS011;21042;47.620;12.188;2024-03-02T06:08:25;43.55;;;19.52;;
34828;SDS011;21042;47.620;12.188;2024-03-02T06:10:52;48.38;;;21.50;;
34828;SDS011;21042;47.620;12.188;2024-03-02T06:13:19;39.25;;;18.77;;
34828;SDS011;21042;47.620;12.188;2024-03-02T06:15:46;45.58;;;20.83;;
34828;SDS011;21042;47.620;12.188;2024-03-02T06:18:13;48.08;;;20.10;;
34828;SDS011;21042;47.620;12.188;2024-03-02T06:20:39;29.88;;;12.32;;
34828;SDS011;21042;47.620;12.188;2024-03-02T06:23:06;31.92;;;14.65;;
34828;SDS011;21042;47.620;12.188;2024-03-02T06:25:33;30.05;;;13.85;;
34828;SDS011;21042;47.620;12.188;2024-03-02T06:28:00;39.92;;;16.60;;
34828;SDS011;21042;47.620;12.188;2024-03-02T06:30:27;33.20;;;15.95;;
34828;SDS011;21042;47.620;12.188;2024-03-02T06:32:53;38.42;;;16.45;;
34828;SDS011;21042;47.620;12.188;2024-03-02T06:35:20;37.13;;;17.63;;
34828;SDS011;21042;47.620;12.188;2024-03-02T06:37:47;38.72;;;16.38;;
34828;SDS011;21042;47.620;12.188;2024-03-02T06:40:14;42.47;;;18.98;;
34828;SDS011;21042;47.620;12.188;2024-03-02T06:42:41;47.55;;;20.73;;
34828;SDS011;21042;47.620;12.188;2024-03-02T06:45:07;50.92;;;22.45;;
34828;SDS011;21042;47.620;12.188;2024-03-02T06:47:34;48.90;;;19.90;;
34828;SDS011;21042;47.620;12.188;2024-03-02T06:50:01;43.58;;;19.58;;
34828;SDS011;21042;47.620;12.188;2024-03-02T06:52:28;40.33;;;19.25;;
34828;SDS011;21042;47.620;12.188;2024-03-02T06:54:54;44.30;;;18.85;;
34828;SDS011;21042;47.620;12.188;2024-03-02T06:57:21;37.40;;;18.70;;
34828;SDS011;21042;47.620;12.188;2024-03-02T06:59:48;42.00;;;18.00;;
34828;SDS011;21042;47.620;12.188;2024-03-02T07:02:17;35.58;;;16.67;;
34828;SDS011;21042;47.620;12.188;2024-03-02T07:04:44;36.80;;;16.42;;
34828;SDS011;21042;47.620;12.188;2024-03-02T07:07:11;34.50;;;15.63;;
34828;SDS011;21042;47.620;12.188;2024-03-02T07:09:38;38.95;;;17.70;;
34828;SDS011;21042;47.620;12.188;2024-03-02T07:12:05;37.42;;;16.95;;
34828;SDS011;21042;47.620;12.188;2024-03-02T07:14:32;38.28;;;16.67;;
34828;SDS011;21042;47.620;12.188;2024-03-02T07:17:18;34.63;;;15.85;;
34828;SDS011;21042;47.620;12.188;2024-03-02T07:19:45;32.53;;;16.80;;
34828;SDS011;21042;47.620;12.188;2024-03-02T07:22:11;35.58;;;16.30;;
34828;SDS011;21042;47.620;12.188;2024-03-02T07:24:42;32.67;;;16.63;;
34828;SDS011;21042;47.620;12.188;2024-03-02T07:27:09;38.33;;;16.42;;
34828;SDS011;21042;47.620;12.188;2024-03-02T07:32:04;36.50;;;15.90;;
34828;SDS011;21042;47.620;12.188;2024-03-02T07:34:32;33.92;;;16.17;;
34828;SDS011;21042;47.620;12.188;2024-03-02T07:36:58;39.25;;;15.63;;
34828;SDS011;21042;47.620;12.188;2024-03-02T07:39:25;33.03;;;14.98;;
34828;SDS011;21042;47.620;12.188;2024-03-02T07:41:52;31.40;;;15.77;;
34828;SDS011;21042;47.620;12.188;2024-03-02T07:44:19;35.97;;;15.40;;
34828;SDS011;21042;47.620;12.188;2024-03-02T07:46:46;33.90;;;14.88;;
34828;SDS011;21042;47.620;12.188;2024-03-02T07:49:15;31.88;;;15.93;;
34828;SDS011;21042;47.620;12.188;2024-03-02T07:51:43;35.80;;;16.25;;
34828;SDS011;21042;47.620;12.188;2024-03-02T07:54:10;31.50;;;14.15;;
34828;SDS011;21042;47.620;12.188;2024-03-02T07:56:37;33.58;;;14.80;;
34828;SDS011;21042;47.620;12.188;2024-03-02T07:59:04;34.17;;;14.93;;
34828;SDS011;21042;47.620;12.188;2024-03-02T08:01:31;33.67;;;15.07;;
34828;SDS011;21042;47.620;12.188;2024-03-02T08:03:59;31.58;;;14.82;;
34828;SDS011;21042;47.620;12.188;2024-03-02T08:06:27;31.50;;;14.82;;
34828;SDS011;21042;47.620;12.188;2024-03-02T08:08:55;30.23;;;14.73;;
34828;SDS011;21042;47.620;12.188;2024-03-02T08:11:23;27.95;;;14.35;;
34828;SDS011;21042;47.620;12.188;2024-03-02T08:13:50;32.47;;;13.93;;
34828;SDS011;21042;47.620;12.188;2024-03-02T08:16:18;28.25;;;14.73;;
34828;SDS011;21042;47.620;12.188;2024-03-02T08:18:51;32.20;;;15.63;;
34828;SDS011;21042;47.620;12.188;2024-03-02T08:21:19;32.95;;;16.17;;
34828;SDS011;21042;47.620;12.188;2024-03-02T08:23:46;29.65;;;15.15;;
34828;SDS011;21042;47.620;12.188;2024-03-02T08:26:13;30.10;;;15.00;;
34828;SDS011;21042;47.620;12.188;2024-03-02T08:28:40;32.38;;;15.55;;
34828;SDS011;21042;47.620;12.188;2024-03-02T08:31:07;31.27;;;15.02;;
34828;SDS011;21042;47.620;12.188;2024-03-02T08:36:04;30.42;;;14.57;;
34828;SDS011;21042;47.620;12.188;2024-03-02T08:38:31;28.88;;;14.80;;
34828;SDS011;21042;47.620;12.188;2024-03-02T08:40:58;28.70;;;14.70;;
34828;SDS011;21042;47.620;12.188;2024-03-02T08:43:25;25.13;;;14.02;;
34828;SDS011;21042;47.620;12.188;2024-03-02T08:45:52;29.60;;;14.85;;
34828;SDS011;21042;47.620;12.188;2024-03-02T08:48:18;25.10;;;13.93;;
34828;SDS011;21042;47.620;12.188;2024-03-02T08:50:47;29.45;;;14.68;;
34828;SDS011;21042;47.620;12.188;2024-03-02T08:53:14;26.17;;;13.23;;
34828;SDS011;21042;47.620;12.188;2024-03-02T08:55:45;26.42;;;12.68;;
34828;SDS011;21042;47.620;12.188;2024-03-02T08:58:12;26.42;;;13.07;;
34828;SDS011;21042;47.620;12.188;2024-03-02T09:03:07;25.35;;;12.63;;
34828;SDS011;21042;47.620;12.188;2024-03-02T09:05:34;28.95;;;13.95;;
34828;SDS011;21042;47.620;12.188;2024-03-02T09:08:01;28.95;;;13.27;;
34828;SDS011;21042;47.620;12.188;2024-03-02T09:10:29;26.48;;;13.05;;
34828;SDS011;21042;47.620;12.188;2024-03-02T09:12:56;27.05;;;13.10;;
34828;SDS011;21042;47.620;12.188;2024-03-02T09:15:24;25.17;;;13.40;;
34828;SDS011;21042;47.620;12.188;2024-03-02T09:17:51;25.38;;;12.80;;
34828;SDS011;21042;47.620;12.188;2024-03-02T09:20:18;24.67;;;12.20;;
34828;SDS011;21042;47.620;12.188;2024-03-02T09:22:44;26.00;;;12.27;;
34828;SDS011;21042;47.620;12.188;2024-03-02T09:25:13;23.92;;;11.77;;
34828;SDS011;21042;47.620;12.188;2024-03-02T09:27:40;20.27;;;11.52;;
34828;SDS011;21042;47.620;12.188;2024-03-02T09:30:07;21.75;;;10.93;;
34828;SDS011;21042;47.620;12.188;2024-03-02T09:32:35;19.83;;;10.80;;
34828;SDS011;21042;47.620;12.188;2024-03-02T09:35:03;21.67;;;11.18;;
34828;SDS011;21042;47.620;12.188;2024-03-02T09:39:57;23.83;;;11.85;;
34828;SDS011;21042;47.620;12.188;2024-03-02T09:42:24;25.52;;;11.20;;
34828;SDS011;21042;47.620;12.188;2024-03-02T09:44:52;23.65;;;11.52;;
34828;SDS011;21042;47.620;12.188;2024-03-02T09:47:20;21.35;;;10.93;;
34828;SDS011;21042;47.620;12.188;2024-03-02T09:49:47;24.05;;;10.73;;
34828;SDS011;21042;47.620;12.188;2024-03-02T09:52:14;18.20;;;10.65;;
34828;SDS011;21042;47.620;12.188;2024-03-02T09:54:42;20.95;;;10.60;;
34828;SDS011;21042;47.620;12.188;2024-03-02T09:57:09;18.98;;;9.27;;
34828;SDS011;21042;47.620;12.188;2024-03-02T09:59:36;20.23;;;9.90;;
34828;SDS011;21042;47.620;12.188;2024-03-02T10:02:02;23.27;;;10.15;;
34828;SDS011;21042;47.620;12.188;2024-03-02T10:04:30;24.15;;;11.13;;
34828;SDS011;21042;47.620;12.188;2024-03-02T10:07:15;27.17;;;11.13;;
34828;SDS011;21042;47.620;12.188;2024-03-02T10:09:43;22.65;;;9.50;;
34828;SDS011;21042;47.620;12.188;2024-03-02T10:12:12;22.27;;;9.70;;
34828;SDS011;21042;47.620;12.188;2024-03-02T10:14:41;22.55;;;9.80;;
34828;SDS011;21042;47.620;12.188;2024-03-02T10:17:09;19.60;;;9.18;;
34828;SDS011;21042;47.620;12.188;2024-03-02T10:19:40;26.45;;;9.75;;
34828;SDS011;21042;47.620;12.188;2024-03-02T10:22:07;25.02;;;11.20;;
34828;SDS011;21042;47.620;12.188;2024-03-02T10:27:07;21.50;;;10.02;;
34828;SDS011;21042;47.620;12.188;2024-03-02T10:29:41;18.52;;;9.88;;
34828;SDS011;21042;47.620;12.188;2024-03-02T10:34:37;18.58;;;9.80;;
34828;SDS011;21042;47.620;12.188;2024-03-02T10:37:06;18.98;;;10.65;;
34828;SDS011;21042;47.620;12.188;2024-03-02T10:39:34;16.42;;;9.85;;
34828;SDS011;21042;47.620;12.188;2024-03-02T10:42:08;19.92;;;9.93;;
34828;SDS011;21042;47.620;12.188;2024-03-02T10:44:35;22.60;;;10.45;;
34828;SDS011;21042;47.620;12.188;2024-03-02T10:47:03;17.67;;;10.27;;
34828;SDS011;21042;47.620;12.188;2024-03-02T10:49:31;22.98;;;10.80;;
34828;SDS011;21042;47.620;12.188;2024-03-02T10:51:59;17.95;;;10.35;;
34828;SDS011;21042;47.620;12.188;2024-03-02T10:54:26;23.02;;;9.93;;
34828;SDS011;21042;47.620;12.188;2024-03-02T10:56:56;22.85;;;10.02;;
34828;SDS011;21042;47.620;12.188;2024-03-02T11:01:57;24.77;;;9.57;;
34828;SDS011;21042;47.620;12.188;2024-03-02T11:04:31;17.55;;;9.57;;
34828;SDS011;21042;47.620;12.188;2024-03-02T11:07:05;13.90;;;8.50;;
34828;SDS011;21042;47.620;12.188;2024-03-02T11:09:34;19.83;;;9.93;;
34828;SDS011;21042;47.620;12.188;2024-03-02T11:12:07;25.00;;;10.40;;
34828;SDS011;21042;47.620;12.188;2024-03-02T11:14:42;21.80;;;9.70;;
34828;SDS011;21042;47.620;12.188;2024-03-02T11:17:13;18.80;;;9.73;;
34828;SDS011;21042;47.620;12.188;2024-03-02T11:19:43;17.88;;;9.40;;
34828;SDS011;21042;47.620;12.188;2024-03-02T11:22:12;18.00;;;9.10;;
34828;SDS011;21042;47.620;12.188;2024-03-02T11:24:47;13.90;;;7.88;;
34828;SDS011;21042;47.620;12.188;2024-03-02T11:27:20;17.02;;;7.93;;
34828;SDS011;21042;47.620;12.188;2024-03-02T11:33:01;12.23;;;7.10;;
34828;SDS011;21042;47.620;12.188;2024-03-02T11:35:41;15.88;;;7.75;;
34828;SDS011;21042;47.620;12.188;2024-03-02T11:38:11;14.20;;;8.25;;
34828;SDS011;21042;47.620;12.188;2024-03-02T11:40:38;11.73;;;7.40;;
34828;SDS011;21042;47.620;12.188;2024-03-02T11:43:07;11.80;;;6.90;;
34828;SDS011;21042;47.620;12.188;2024-03-02T11:45:37;11.32;;;6.15;;
34828;SDS011;21042;47.620;12.188;2024-03-02T11:48:13;13.20;;;7.63;;
34828;SDS011;21042;47.620;12.188;2024-03-02T11:50:42;13.85;;;7.25;;
34828;SDS011;21042;47.620;12.188;2024-03-02T11:53:13;14.68;;;6.60;;
34828;SDS011;21042;47.620;12.188;2024-03-02T11:58:07;11.70;;;5.90;;
34828;SDS011;21042;47.620;12.188;2024-03-02T12:00:34;5.72;;;3.53;;
34828;SDS011;21042;47.620;12.188;2024-03-02T12:05:32;5.10;;;3.33;;
34828;SDS011;21042;47.620;12.188;2024-03-02T12:08:03;6.72;;;4.30;;
34828;SDS011;21042;47.620;12.188;2024-03-02T12:10:33;7.93;;;5.10;;
34828;SDS011;21042;47.620;12.188;2024-03-02T12:13:01;11.30;;;5.07;;
34828;SDS011;21042;47.620;12.188;2024-03-02T12:15:34;10.00;;;5.30;;
34828;SDS011;21042;47.620;12.188;2024-03-02T12:18:03;15.18;;;4.88;;
34828;SDS011;21042;47.620;12.188;2024-03-02T12:20:31;9.10;;;4.40;;
34828;SDS011;21042;47.620;12.188;2024-03-02T12:22:59;7.65;;;4.70;;
34828;SDS011;21042;47.620;12.188;2024-03-02T12:25:28;9.90;;;3.97;;
34828;SDS011;21042;47.620;12.188;2024-03-02T12:27:58;7.75;;;4.13;;
34828;SDS011;21042;47.620;12.188;2024-03-02T12:30:29;7.90;;;4.53;;
34828;SDS011;21042;47.620;12.188;2024-03-02T12:32:57;16.10;;;5.50;;
34828;SDS011;21042;47.620;12.188;2024-03-02T12:35:25;14.35;;;6.70;;
34828;SDS011;21042;47.620;12.188;2024-03-02T12:37:53;16.02;;;6.70;;
34828;SDS011;21042;47.620;12.188;2024-03-02T12:40:20;15.50;;;8.50;;
34828;SDS011;21042;47.620;12.188;2024-03-02T12:42:49;17.40;;;8.52;;
34828;SDS011;21042;47.620;12.188;2024-03-02T12:45:17;16.50;;;7.85;;
34828;SDS011;21042;47.620;12.188;2024-03-02T12:47:51;17.90;;;8.48;;
34828;SDS011;21042;47.620;12.188;2024-03-02T12:50:18;16.38;;;8.57;;
34828;SDS011;21042;47.620;12.188;2024-03-02T12:52:52;15.05;;;8.15;;
34828;SDS011;21042;47.620;12.188;2024-03-02T12:55:20;15.25;;;8.20;;
34828;SDS011;21042;47.620;12.188;2024-03-02T12:57:51;18.05;;;9.63;;
34828;SDS011;21042;47.620;12.188;2024-03-02T13:00:20;16.17;;;8.93;;
34828;SDS011;21042;47.620;12.188;2024-03-02T13:02:48;15.15;;;8.77;;
34828;SDS011;21042;47.620;12.188;2024-03-02T13:05:17;16.80;;;9.68;;
34828;SDS011;21042;47.620;12.188;2024-03-02T13:07:44;18.23;;;9.23;;
34828;SDS011;21042;47.620;12.188;2024-03-02T13:10:14;20.35;;;10.02;;
34828;SDS011;21042;47.620;12.188;2024-03-02T13:12:41;19.13;;;10.30;;
34828;SDS011;21042;47.620;12.188;2024-03-02T13:15:08;23.45;;;10.73;;
34828;SDS011;21042;47.620;12.188;2024-03-02T13:17:38;20.05;;;11.15;;
34828;SDS011;21042;47.620;12.188;2024-03-02T13:20:06;19.05;;;10.65;;
34828;SDS011;21042;47.620;12.188;2024-03-02T13:22:37;19.30;;;10.63;;
34828;SDS011;21042;47.620;12.188;2024-03-02T13:25:04;23.92;;;10.40;;
34828;SDS011;21042;47.620;12.188;2024-03-02T13:27:31;20.48;;;10.93;;
34828;SDS011;21042;47.620;12.188;2024-03-02T13:29:59;19.77;;;9.77;;
34828;SDS011;21042;47.620;12.188;2024-03-02T13:32:27;18.13;;;9.65;;
34828;SDS011;21042;47.620;12.188;2024-03-02T13:34:54;20.65;;;11.10;;
34828;SDS011;21042;47.620;12.188;2024-03-02T13:37:21;24.10;;;11.30;;
34828;SDS011;21042;47.620;12.188;2024-03-02T13:39:48;22.83;;;12.02;;
34828;SDS011;21042;47.620;12.188;2024-03-02T13:42:15;20.85;;;11.90;;
34828;SDS011;21042;47.620;12.188;2024-03-02T13:47:11;19.90;;;10.75;;
34828;SDS011;21042;47.620;12.188;2024-03-02T13:49:38;20.20;;;12.13;;
34828;SDS011;21042;47.620;12.188;2024-03-02T13:52:09;23.13;;;11.73;;
34828;SDS011;21042;47.620;12.188;2024-03-02T13:54:37;21.80;;;11.30;;
34828;SDS011;21042;47.620;12.188;2024-03-02T13:57:09;24.05;;;12.07;;
34828;SDS011;21042;47.620;12.188;2024-03-02T13:59:37;19.30;;;9.65;;
34828;SDS011;21042;47.620;12.188;2024-03-02T14:02:05;21.80;;;10.60;;
34828;SDS011;21042;47.620;12.188;2024-03-02T14:04:35;21.58;;;11.15;;
34828;SDS011;21042;47.620;12.188;2024-03-02T14:07:04;26.40;;;10.93;;
34828;SDS011;21042;47.620;12.188;2024-03-02T14:09:34;18.83;;;9.95;;
34828;SDS011;21042;47.620;12.188;2024-03-02T14:12:01;17.88;;;10.30;;
34828;SDS011;21042;47.620;12.188;2024-03-02T14:14:29;18.27;;;10.27;;
34828;SDS011;21042;47.620;12.188;2024-03-02T14:16:56;17.60;;;9.70;;
34828;SDS011;21042;47.620;12.188;2024-03-02T14:19:26;18.20;;;9.57;;
34828;SDS011;21042;47.620;12.188;2024-03-02T14:24:20;19.73;;;10.27;;
34828;SDS011;21042;47.620;12.188;2024-03-02T14:26:50;22.88;;;10.55;;
34828;SDS011;21042;47.620;12.188;2024-03-02T14:29:18;16.63;;;9.00;;
34828;SDS011;21042;47.620;12.188;2024-03-02T14:31:45;18.85;;;10.30;;
34828;SDS011;21042;47.620;12.188;2024-03-02T14:34:15;18.80;;;10.50;;
34828;SDS011;21042;47.620;12.188;2024-03-02T14:36:42;17.30;;;10.02;;
34828;SDS011;21042;47.620;12.188;2024-03-02T14:39:12;18.17;;;9.85;;
34828;SDS011;21042;47.620;12.188;2024-03-02T14:41:39;21.77;;;10.40;;
34828;SDS011;21042;47.620;12.188;2024-03-02T14:44:05;22.38;;;11.57;;
34828;SDS011;21042;47.620;12.188;2024-03-02T14:46:32;17.70;;;9.95;;
34828;SDS011;21042;47.620;12.188;2024-03-02T14:49:00;17.00;;;9.85;;
34828;SDS011;21042;47.620;12.188;2024-03-02T14:51:27;18.85;;;9.05;;
34828;SDS011;21042;47.620;12.188;2024-03-02T14:53:53;14.52;;;9.57;;
34828;SDS011;21042;47.620;12.188;2024-03-02T14:56:20;15.98;;;9.15;;
34828;SDS011;21042;47.620;12.188;2024-03-02T14:58:47;16.33;;;9.15;;
34828;SDS011;21042;47.620;12.188;2024-03-02T15:01:14;19.90;;;10.00;;
34828;SDS011;21042;47.620;12.188;2024-03-02T15:03:42;16.42;;;8.95;;
34828;SDS011;21042;47.620;12.188;2024-03-02T15:06:09;17.02;;;9.23;;
34828;SDS011;21042;47.620;12.188;2024-03-02T15:08:36;18.05;;;9.05;;
34828;SDS011;21042;47.620;12.188;2024-03-02T15:11:02;15.45;;;8.63;;
34828;SDS011;21042;47.620;12.188;2024-03-02T15:13:30;18.30;;;9.15;;
34828;SDS011;21042;47.620;12.188;2024-03-02T15:15:57;15.43;;;9.02;;